Terminal Aerodrome Forecast
Issued by NWS Melbourne, FL

Home | Current Version | Previous Version | Text Only | Print | Product List | Glossary On
Versions: 1 2 3 4 5 6 7 8 9 10 11 12 13 14 15 16 17 18
000
FTUS42 KMLB 220905 AAB
TAFMLB
TAF AMD
KMLB 220905Z 2209/2306 31003KT P6SM SCT015 SCT250
      TEMPO 2210/2213 2SM BR BKN006 BKN015
     FM221400 32005KT P6SM FEW015 SCT035 BKN250
     FM221800 03010KT P6SM SCT035
     FM230300 05006KT P6SM SCT015 BKN030=

USA.gov is the U.S. government's official web portal to all federal, state and local government web resources and services.